Terminal Aerodrome Forecast
Issued by NWS Omaha/Valley, NE

Home | Current Version | Previous Version | Graphics & Text | Print | Product List | Glossary On
Versions: 1 2 3 4 5 6 7 8 9 10 11 12 13 14 15 16 17 18 19 20 21 22 23 24 25 26 27 28
000
FTUS43 KOAX 232320
TAFOFK
TAF
KOFK 232320Z 2400/2424 32014KT P6SM FEW060
     FM240300 31008KT P6SM SKC
     FM240700 30004KT P6SM SKC
     FM241500 28008KT P6SM FEW250
     FM241700 30012KT P6SM FEW250=

USA.gov is the U.S. government's official web portal to all federal, state and local government web resources and services.